モンテビデオ の空港の天気 - METARとTAF

カラスコ国際空港 ( SUMU / MVD ) - ウルグアイ モンテビデオ
飛行場実況気象(Metar)
観測時間11/13 05:00 UYT (11/13 08:00 UTC)
風向・風速北東 1m/s
視程10km以上
天気現象
全天の8割程度の雲 雲底高度 1220m
気温19℃
湿度94%
気圧1009hPa
METARSUMU 130800Z 05002KT 9999 BKN040 19/18 Q1009 TEMPO BR
過去の天気等 Google飛行場航空写真 Wunderground天気予報

過去48時間のMETAR

飛行場予報(TAF)
発表時間: 11/13 02:30 UYT (11/13 05:30 UTC)
予報対象時間: 13日3時 UYT ~ 14日3時 UYT
風向・風速北東 5m/s
視程10km以上
全天の4割程度の雲 雲底高度 610m
13日3時 UYT ~ 13日7時 UYT に 確率 40% で一時的に
視程5000m
天気現象もや
TAF SUMU 130530Z 1306/1406 05010KT 9999 SCT020 TX27/1318Z TN17/1309Z
PROB40 TEMPO 1306/1310 5000 BR